Time;durP1;ratioP1;P1;durP2;ratioP2;P2;SDS_P1;SDS_P2;PMS_P1;PMS_P2;Temp;Humidity;BMP_temperature;BMP_pressure;BME280_temperature;BME280_humidity;BME280_pressure;Samples;Min_cycle;Max_cycle;Signal;HPM_P1;HPM_P2
2023/12/20 00:01:57;;;;;;;10.07;5.28;;;;;;;;;;5089416;28;20063;-69
2023/12/20 00:04:24;;;;;;;9.02;5.68;;;;;;;;;;5089726;28;20048;-69
2023/12/20 00:06:52;;;;;;;19.65;6.05;;;;;;;;;;5089808;28;20044;-68
2023/12/20 00:09:18;;;;;;;8.98;5.60;;;;;;;;;;5089574;28;20048;-69
2023/12/20 00:11:46;;;;;;;13.75;6.65;;;;;;;;;;5089486;28;20055;-69
2023/12/20 00:14:12;;;;;;;8.70;5.25;;;;;;;;;;5089327;28;20397;-69
2023/12/20 00:16:39;;;;;;;9.55;4.90;;;;;;;;;;5089544;28;20127;-69
2023/12/20 00:19:06;;;;;;;8.63;4.85;;;;;;;;;;5089425;28;20044;-69
2023/12/20 00:21:33;;;;;;;9.10;5.28;;;;;;;;;;5089551;28;20230;-68
2023/12/20 00:23:59;;;;;;;11.20;5.70;;;;;;;;;;5088891;28;20089;-69
2023/12/20 00:26:28;;;;;;;9.50;5.30;;;;;;;;;;5071023;28;20044;-68
2023/12/20 00:28:54;;;;;;;10.70;6.07;;;;;;;;;;5089501;28;20044;-69
2023/12/20 00:31:21;;;;;;;9.07;5.00;;;;;;;;;;5089029;28;20534;-68
2023/12/20 00:33:48;;;;;;;9.15;4.40;;;;;;;;;;5089366;28;20101;-68
2023/12/20 00:36:15;;;;;;;8.48;4.53;;;;;;;;;;5089465;28;20044;-68
2023/12/20 00:38:41;;;;;;;9.10;5.18;;;;;;;;;;5088896;28;20044;-68
2023/12/20 00:41:08;;;;;;;8.38;5.18;;;;;;;;;;5088904;28;20702;-68
2023/12/20 00:43:35;;;;;;;9.50;5.10;;;;;;;;;;5088919;28;20606;-68
2023/12/20 00:46:01;;;;;;;7.50;4.38;;;;;;;;;;5089642;28;20070;-68
2023/12/20 00:48:30;;;;;;;11.02;5.50;;;;;;;;;;5088919;28;20048;-68
2023/12/20 00:50:57;;;;;;;7.53;4.90;;;;;;;;;;5088929;28;20068;-68
2023/12/20 00:53:24;;;;;;;6.53;4.45;;;;;;;;;;5089170;28;20048;-68
2023/12/20 00:55:50;;;;;;;8.48;4.82;;;;;;;;;;5089045;28;20071;-69
2023/12/20 00:58:17;;;;;;;8.93;5.00;;;;;;;;;;5070633;28;20048;-69
2023/12/20 01:00:44;;;;;;;7.65;4.50;;;;;;;;;;5089013;28;20055;-69
2023/12/20 01:03:11;;;;;;;9.23;4.93;;;;;;;;;;5088692;28;20045;-68
2023/12/20 01:05:37;;;;;;;7.43;4.60;;;;;;;;;;5089276;28;20416;-68
2023/12/20 01:08:05;;;;;;;8.77;5.18;;;;;;;;;;5089070;28;20144;-68
2023/12/20 01:10:31;;;;;;;10.00;5.43;;;;;;;;;;5087386;28;20044;-68
2023/12/20 01:13:01;;;;;;;10.00;5.68;;;;;;;;;;5088753;28;20056;-69
2023/12/20 01:15:27;;;;;;;11.50;5.72;;;;;;;;;;5088861;28;20040;-69
2023/12/20 01:17:56;;;;;;;9.90;5.45;;;;;;;;;;5088607;28;20044;-68
2023/12/20 01:20:23;;;;;;;8.60;5.20;;;;;;;;;;5088974;28;20056;-68
2023/12/20 01:22:50;;;;;;;9.20;5.40;;;;;;;;;;5088753;28;20052;-68
2023/12/20 01:25:17;;;;;;;8.05;4.85;;;;;;;;;;5088926;28;20063;-68
2023/12/20 01:27:44;;;;;;;8.80;5.00;;;;;;;;;;5074088;28;20076;-68
2023/12/20 01:30:11;;;;;;;6.70;4.57;;;;;;;;;;5092172;28;20044;-68
2023/12/20 01:32:38;;;;;;;7.75;4.70;;;;;;;;;;5092269;28;20093;-68
2023/12/20 01:35:05;;;;;;;8.90;4.75;;;;;;;;;;5092485;28;20044;-68
2023/12/20 01:37:32;;;;;;;7.80;4.50;;;;;;;;;;5092394;28;20040;-69
2023/12/20 01:39:58;;;;;;;7.57;4.53;;;;;;;;;;5092121;28;20063;-73
2023/12/20 01:42:25;;;;;;;8.30;4.20;;;;;;;;;;5092679;28;20047;-68
2023/12/20 01:44:52;;;;;;;8.63;5.10;;;;;;;;;;5092343;28;20059;-68
2023/12/20 01:47:19;;;;;;;7.25;3.92;;;;;;;;;;5092641;28;20056;-68
2023/12/20 01:49:45;;;;;;;6.40;3.92;;;;;;;;;;5091786;28;20097;-68
2023/12/20 01:52:13;;;;;;;7.97;4.68;;;;;;;;;;5091664;28;20139;-68
2023/12/20 01:54:41;;;;;;;7.70;4.28;;;;;;;;;;5091992;28;20044;-68
2023/12/20 01:57:09;;;;;;;5.85;4.00;;;;;;;;;;5092242;28;20102;-68
2023/12/20 01:59:36;;;;;;;6.63;4.30;;;;;;;;;;5092279;28;20044;-68
2023/12/20 02:02:03;;;;;;;7.22;4.25;;;;;;;;;;5092151;28;20050;-68
2023/12/20 02:04:30;;;;;;;7.10;3.83;;;;;;;;;;5091584;28;20450;-68
2023/12/20 02:06:59;;;;;;;5.70;3.53;;;;;;;;;;5092345;28;20048;-68
2023/12/20 02:09:27;;;;;;;5.60;3.53;;;;;;;;;;5091596;28;20044;-68
2023/12/20 02:11:54;;;;;;;5.65;3.55;;;;;;;;;;5091480;28;20052;-68
2023/12/20 02:14:21;;;;;;;5.85;3.65;;;;;;;;;;5091872;28;20048;-68
2023/12/20 02:16:48;;;;;;;7.97;4.82;;;;;;;;;;5091619;28;20420;-68
2023/12/20 02:19:15;;;;;;;6.63;4.22;;;;;;;;;;5091639;28;20075;-68
2023/12/20 02:21:42;;;;;;;7.13;3.38;;;;;;;;;;5091464;28;20143;-68
2023/12/20 02:24:09;;;;;;;6.57;4.10;;;;;;;;;;5091262;28;20431;-72
2023/12/20 02:26:36;;;;;;;6.65;3.55;;;;;;;;;;5091184;28;20063;-68
2023/12/20 02:29:02;;;;;;;8.65;4.88;;;;;;;;;;5091192;28;20052;-68
2023/12/20 02:31:29;;;;;;;8.77;5.10;;;;;;;;;;5091266;28;20404;-68
2023/12/20 02:33:56;;;;;;;6.40;3.70;;;;;;;;;;5091177;28;20055;-68
2023/12/20 02:36:22;;;;;;;6.07;3.83;;;;;;;;;;5091421;28;20452;-68
2023/12/20 02:38:50;;;;;;;5.57;3.58;;;;;;;;;;5090366;28;20040;-68
2023/12/20 02:41:18;;;;;;;7.60;4.10;;;;;;;;;;5091107;28;20097;-68
2023/12/20 02:43:45;;;;;;;6.55;4.15;;;;;;;;;;5091287;28;20044;-68
2023/12/20 02:46:13;;;;;;;6.97;4.22;;;;;;;;;;5073271;28;20147;-70
2023/12/20 02:48:40;;;;;;;7.13;4.03;;;;;;;;;;5091300;28;20070;-68
2023/12/20 02:51:07;;;;;;;6.03;3.72;;;;;;;;;;5090996;28;20079;-68
2023/12/20 02:53:33;;;;;;;8.05;4.47;;;;;;;;;;5090860;28;20044;-68
2023/12/20 02:56:00;;;;;;;8.52;4.53;;;;;;;;;;5090616;28;20047;-69
2023/12/20 02:58:27;;;;;;;5.80;3.67;;;;;;;;;;5090826;28;20131;-68
2023/12/20 03:00:54;;;;;;;5.80;3.35;;;;;;;;;;5090735;28;20125;-68
2023/12/20 03:03:20;;;;;;;5.80;3.28;;;;;;;;;;5090895;28;20051;-68
2023/12/20 03:05:47;;;;;;;5.60;3.40;;;;;;;;;;5090771;28;20125;-68
2023/12/20 03:08:14;;;;;;;4.93;3.33;;;;;;;;;;5091011;28;20101;-68
2023/12/20 03:10:41;;;;;;;5.45;2.95;;;;;;;;;;5090607;28;20040;-68
2023/12/20 03:13:08;;;;;;;5.45;3.05;;;;;;;;;;5090798;28;20052;-68
2023/12/20 03:15:34;;;;;;;4.18;2.55;;;;;;;;;;5090572;28;20051;-68
2023/12/20 03:18:01;;;;;;;4.93;2.97;;;;;;;;;;5090519;28;20469;-68
2023/12/20 03:20:28;;;;;;;7.35;3.78;;;;;;;;;;5090288;28;20048;-68
2023/12/20 03:22:54;;;;;;;5.40;3.20;;;;;;;;;;5090521;28;20047;-68
2023/12/20 03:25:21;;;;;;;6.35;3.33;;;;;;;;;;5071806;28;20510;-68
2023/12/20 03:27:48;;;;;;;6.05;3.50;;;;;;;;;;5090696;28;20040;-68
2023/12/20 03:30:15;;;;;;;6.75;3.85;;;;;;;;;;5090152;28;20087;-68
2023/12/20 03:32:42;;;;;;;7.53;3.95;;;;;;;;;;5090373;28;20051;-68
2023/12/20 03:35:08;;;;;;;6.80;4.07;;;;;;;;;;5089728;28;20479;-68
2023/12/20 03:37:36;;;;;;;6.72;4.07;;;;;;;;;;5090069;28;20536;-68
2023/12/20 03:40:03;;;;;;;6.47;4.18;;;;;;;;;;5089723;28;20511;-68
2023/12/20 03:42:30;;;;;;;6.35;4.05;;;;;;;;;;5090218;28;20048;-68
2023/12/20 03:44:56;;;;;;;7.07;4.20;;;;;;;;;;5089828;28;20511;-68
2023/12/20 03:47:23;;;;;;;7.35;4.28;;;;;;;;;;5090023;28;20101;-68
2023/12/20 03:49:50;;;;;;;6.63;4.07;;;;;;;;;;5088838;28;20055;-68
2023/12/20 03:52:16;;;;;;;6.28;3.60;;;;;;;;;;5089653;28;20095;-68
2023/12/20 03:54:43;;;;;;;7.05;3.80;;;;;;;;;;5089365;28;20623;-68
2023/12/20 03:57:10;;;;;;;6.43;3.85;;;;;;;;;;5089934;28;20040;-68
2023/12/20 03:59:37;;;;;;;7.03;3.78;;;;;;;;;;5089628;28;20056;-68
2023/12/20 04:02:04;;;;;;;6.80;3.83;;;;;;;;;;5089734;28;20052;-69
2023/12/20 04:04:31;;;;;;;7.15;4.30;;;;;;;;;;5089696;28;20527;-71
2023/12/20 04:06:58;;;;;;;6.30;4.20;;;;;;;;;;5089574;28;20044;-68
2023/12/20 04:09:25;;;;;;;5.63;3.85;;;;;;;;;;5089581;28;20058;-68
2023/12/20 04:11:51;;;;;;;5.10;3.42;;;;;;;;;;5089289;28;20051;-68
2023/12/20 04:14:18;;;;;;;5.60;3.63;;;;;;;;;;5071468;28;20055;-69
2023/12/20 04:16:45;;;;;;;6.45;3.55;;;;;;;;;;5089530;28;20047;-68
2023/12/20 04:19:13;;;;;;;6.45;4.13;;;;;;;;;;5089713;28;20055;-68
2023/12/20 04:21:40;;;;;;;6.32;3.83;;;;;;;;;;5089300;28;20048;-68
2023/12/20 04:24:08;;;;;;;5.57;3.47;;;;;;;;;;5089453;28;20044;-68
2023/12/20 04:26:34;;;;;;;6.53;4.05;;;;;;;;;;5089164;28;20048;-68
2023/12/20 04:29:01;;;;;;;6.63;3.63;;;;;;;;;;5089492;28;20048;-68
2023/12/20 04:31:28;;;;;;;5.00;3.10;;;;;;;;;;5088864;28;20055;-69
2023/12/20 04:33:55;;;;;;;7.13;3.95;;;;;;;;;;5088894;28;20504;-68
2023/12/20 04:36:22;;;;;;;4.93;3.05;;;;;;;;;;5089043;28;20109;-69
2023/12/20 04:38:48;;;;;;;5.93;3.60;;;;;;;;;;5088654;28;20044;-68
2023/12/20 04:41:15;;;;;;;7.25;3.83;;;;;;;;;;5068053;28;20044;-69
2023/12/20 04:43:42;;;;;;;6.80;3.85;;;;;;;;;;5088533;28;20519;-68
2023/12/20 04:46:09;;;;;;;6.38;4.05;;;;;;;;;;5088268;28;20047;-71
2023/12/20 04:48:36;;;;;;;4.20;3.17;;;;;;;;;;5088928;28;20041;-68
2023/12/20 04:51:03;;;;;;;6.75;3.85;;;;;;;;;;5088329;28;20052;-69
2023/12/20 04:53:30;;;;;;;5.50;3.42;;;;;;;;;;5088379;28;20050;-68
2023/12/20 04:55:57;;;;;;;6.82;4.03;;;;;;;;;;5088504;28;20078;-69
2023/12/20 04:58:24;;;;;;;4.95;3.38;;;;;;;;;;5088459;28;20627;-69
2023/12/20 05:00:51;;;;;;;6.78;3.90;;;;;;;;;;5088967;28;20141;-68
2023/12/20 05:03:17;;;;;;;5.70;3.72;;;;;;;;;;5092536;28;20050;-68
2023/12/20 05:05:44;;;;;;;5.30;3.67;;;;;;;;;;5092514;28;20044;-67
2023/12/20 05:08:11;;;;;;;8.55;3.33;;;;;;;;;;5092615;28;20048;-68
2023/12/20 05:10:38;;;;;;;6.88;3.40;;;;;;;;;;5092142;28;20431;-68
2023/12/20 05:13:05;;;;;;;4.63;2.90;;;;;;;;;;5089431;28;20051;-68
2023/12/20 05:15:31;;;;;;;5.20;2.80;;;;;;;;;;5092509;28;20047;-68
2023/12/20 05:17:58;;;;;;;6.63;3.25;;;;;;;;;;5092265;28;20627;-68
2023/12/20 05:20:25;;;;;;;4.35;2.63;;;;;;;;;;5089791;28;20119;-68
2023/12/20 05:22:51;;;;;;;6.80;2.55;;;;;;;;;;5092127;28;20141;-68
2023/12/20 05:25:18;;;;;;;3.70;2.38;;;;;;;;;;5091863;28;20109;-69
2023/12/20 05:27:45;;;;;;;4.53;2.35;;;;;;;;;;5092108;28;20044;-73
2023/12/20 05:30:13;;;;;;;4.20;1.95;;;;;;;;;;5092160;28;20637;-68
2023/12/20 05:32:40;;;;;;;4.18;1.85;;;;;;;;;;5091702;28;20436;-73
2023/12/20 05:35:07;;;;;;;2.78;1.88;;;;;;;;;;5092420;28;20079;-68
2023/12/20 05:37:34;;;;;;;3.80;1.70;;;;;;;;;;5082119;28;20581;-68
2023/12/20 05:40:00;;;;;;;2.33;1.50;;;;;;;;;;5092119;28;20055;-68
2023/12/20 05:42:27;;;;;;;2.38;1.58;;;;;;;;;;5091822;28;20055;-71
2023/12/20 05:44:54;;;;;;;2.15;1.38;;;;;;;;;;5092845;28;20040;-68
2023/12/20 05:47:24;;;;;;;2.67;1.42;;;;;;;;;;5092501;28;20051;-68
2023/12/20 05:49:51;;;;;;;2.13;1.50;;;;;;;;;;5092405;28;20044;-74
2023/12/20 05:52:17;;;;;;;2.03;1.38;;;;;;;;;;5092317;28;20102;-68
2023/12/20 05:54:45;;;;;;;2.20;1.30;;;;;;;;;;5091993;28;20089;-68
2023/12/20 05:57:11;;;;;;;1.90;1.00;;;;;;;;;;5091963;28;20052;-68
2023/12/20 05:59:38;;;;;;;2.22;1.15;;;;;;;;;;5092264;28;20074;-68
2023/12/20 06:02:05;;;;;;;1.42;1.05;;;;;;;;;;5091886;28;20044;-68
2023/12/20 06:04:32;;;;;;;1.58;1.00;;;;;;;;;;5092149;28;20062;-69
2023/12/20 06:06:59;;;;;;;2.00;1.00;;;;;;;;;;5091692;28;20040;-69
2023/12/20 06:09:29;;;;;;;0.95;0.73;;;;;;;;;;5091597;28;20412;-69
2023/12/20 06:11:57;;;;;;;1.67;1.10;;;;;;;;;;5091594;28;20135;-69
2023/12/20 06:14:24;;;;;;;2.30;1.30;;;;;;;;;;5094469;28;20052;-68
2023/12/20 06:16:51;;;;;;;1.60;1.08;;;;;;;;;;5096507;28;20040;-68
2023/12/20 06:19:18;;;;;;;1.58;1.17;;;;;;;;;;5091610;28;20094;-68
2023/12/20 06:21:44;;;;;;;1.33;0.90;;;;;;;;;;5091408;28;20128;-68
2023/12/20 06:24:11;;;;;;;1.45;1.00;;;;;;;;;;5091446;28;20044;-68
2023/12/20 06:26:38;;;;;;;1.48;0.93;;;;;;;;;;5091301;28;20056;-68
2023/12/20 06:29:05;;;;;;;1.50;1.10;;;;;;;;;;5091551;28;20411;-68
2023/12/20 06:31:32;;;;;;;1.67;0.82;;;;;;;;;;5091348;28;20139;-68
2023/12/20 06:33:59;;;;;;;1.55;1.05;;;;;;;;;;5091291;28;20129;-68
2023/12/20 06:36:26;;;;;;;1.67;1.00;;;;;;;;;;5091491;28;20112;-68
2023/12/20 06:38:53;;;;;;;2.00;0.95;;;;;;;;;;5091379;28;20055;-68
2023/12/20 06:41:20;;;;;;;1.65;0.90;;;;;;;;;;5091486;28;20060;-68
2023/12/20 06:43:47;;;;;;;1.90;1.00;;;;;;;;;;5091016;28;20052;-68
2023/12/20 06:46:16;;;;;;;1.20;0.80;;;;;;;;;;5091117;28;20064;-68
2023/12/20 06:48:44;;;;;;;1.27;0.88;;;;;;;;;;5091207;28;20052;-68
2023/12/20 06:51:15;;;;;;;1.20;0.75;;;;;;;;;;5090743;28;20454;-69
2023/12/20 06:53:42;;;;;;;1.58;1.00;;;;;;;;;;5090521;28;20048;-68
2023/12/20 06:56:11;;;;;;;1.27;0.82;;;;;;;;;;5072854;28;20577;-68
2023/12/20 06:58:39;;;;;;;1.52;1.00;;;;;;;;;;5090958;28;20479;-85
2023/12/20 07:01:11;;;;;;;0.88;0.70;;;;;;;;;;5091038;28;20055;-68
2023/12/20 07:03:39;;;;;;;1.30;0.77;;;;;;;;;;5090571;28;20507;-68
2023/12/20 07:06:06;;;;;;;1.58;0.90;;;;;;;;;;5090720;28;20040;-68
2023/12/20 07:08:33;;;;;;;1.45;0.70;;;;;;;;;;5090146;28;20046;-68
2023/12/20 07:10:59;;;;;;;1.10;0.60;;;;;;;;;;5090413;28;20496;-69
2023/12/20 07:13:26;;;;;;;0.77;0.55;;;;;;;;;;5090019;28;20545;-69
2023/12/20 07:15:53;;;;;;;2.08;0.60;;;;;;;;;;5090576;28;20084;-69
2023/12/20 07:18:19;;;;;;;1.92;0.82;;;;;;;;;;5090234;28;20529;-69
2023/12/20 07:20:46;;;;;;;1.15;0.75;;;;;;;;;;5090557;28;20571;-68
2023/12/20 07:23:13;;;;;;;1.33;0.70;;;;;;;;;;5089764;28;20635;-68
2023/12/20 07:25:40;;;;;;;0.98;0.75;;;;;;;;;;5090308;28;20048;-68
2023/12/20 07:28:07;;;;;;;1.02;0.70;;;;;;;;;;5089971;28;20047;-68
2023/12/20 07:30:33;;;;;;;1.10;0.77;;;;;;;;;;5090132;28;20048;-69
2023/12/20 07:33:01;;;;;;;0.98;0.77;;;;;;;;;;5090194;28;20040;-70
2023/12/20 07:35:27;;;;;;;0.95;0.75;;;;;;;;;;5091077;28;20109;-71
2023/12/20 07:37:54;;;;;;;1.67;0.88;;;;;;;;;;5090092;28;20105;-68
2023/12/20 07:40:21;;;;;;;0.88;0.70;;;;;;;;;;5090218;28;20052;-69
2023/12/20 07:42:48;;;;;;;1.48;0.80;;;;;;;;;;5089816;28;20079;-69
2023/12/20 07:45:15;;;;;;;1.23;0.90;;;;;;;;;;5090065;28;20072;-69
2023/12/20 07:47:41;;;;;;;1.30;0.95;;;;;;;;;;5089722;28;20587;-69
2023/12/20 07:50:10;;;;;;;1.65;0.95;;;;;;;;;;5089146;28;20164;-69
2023/12/20 07:52:37;;;;;;;1.55;0.90;;;;;;;;;;5089539;28;20130;-69
2023/12/20 07:55:04;;;;;;;1.13;0.82;;;;;;;;;;5089612;28;20054;-68
2023/12/20 07:57:31;;;;;;;1.10;0.82;;;;;;;;;;5089854;28;20048;-69
2023/12/20 08:00:00;;;;;;;1.40;0.90;;;;;;;;;;5089768;28;20040;-69
2023/12/20 08:02:27;;;;;;;2.47;0.82;;;;;;;;;;5089375;28;20043;-69
2023/12/20 08:04:54;;;;;;;1.10;0.80;;;;;;;;;;5089624;28;20488;-69
2023/12/20 08:07:21;;;;;;;1.02;0.70;;;;;;;;;;5089684;28;20074;-69
2023/12/20 08:09:48;;;;;;;1.17;0.77;;;;;;;;;;5089290;28;20065;-69
2023/12/20 08:12:16;;;;;;;1.23;0.90;;;;;;;;;;5071796;28;20106;-68
2023/12/20 08:14:43;;;;;;;1.25;0.85;;;;;;;;;;5089401;28;20044;-68
2023/12/20 08:17:10;;;;;;;1.10;0.90;;;;;;;;;;5089451;28;20442;-69
2023/12/20 08:19:36;;;;;;;1.13;0.82;;;;;;;;;;5089210;28;20593;-68
2023/12/20 08:22:03;;;;;;;2.25;0.90;;;;;;;;;;5089947;28;20093;-70
2023/12/20 08:24:30;;;;;;;1.25;0.85;;;;;;;;;;5089150;28;20054;-69
2023/12/20 08:26:56;;;;;;;1.08;0.77;;;;;;;;;;5089385;28;20059;-69
2023/12/20 08:29:23;;;;;;;0.95;0.70;;;;;;;;;;5088224;28;20055;-68
2023/12/20 08:31:56;;;;;;;2.25;0.80;;;;;;;;;;5089224;28;20047;-68
2023/12/20 08:34:26;;;;;;;1.38;0.95;;;;;;;;;;5088928;28;20470;-68
2023/12/20 08:36:53;;;;;;;1.65;0.90;;;;;;;;;;5089080;28;20119;-69
2023/12/20 08:39:20;;;;;;;1.10;0.85;;;;;;;;;;5088713;28;20466;-68
2023/12/20 08:41:47;;;;;;;0.95;0.70;;;;;;;;;;5089244;28;20048;-68
2023/12/20 08:44:13;;;;;;;1.05;0.75;;;;;;;;;;5089247;28;20059;-68
2023/12/20 08:46:40;;;;;;;1.65;0.95;;;;;;;;;;5089426;28;20138;-68
2023/12/20 08:49:08;;;;;;;1.55;0.82;;;;;;;;;;5089181;28;20041;-69
2023/12/20 08:51:35;;;;;;;1.60;1.10;;;;;;;;;;5090622;28;20098;-68
2023/12/20 08:54:02;;;;;;;1.73;0.95;;;;;;;;;;5088393;28;20558;-68
2023/12/20 08:56:29;;;;;;;3.13;1.17;;;;;;;;;;5090480;28;20773;-68
2023/12/20 08:58:55;;;;;;;1.73;1.10;;;;;;;;;;5088890;28;20504;-71
2023/12/20 09:01:22;;;;;;;2.08;1.10;;;;;;;;;;5089458;28;20495;-69
2023/12/20 09:03:49;;;;;;;1.95;1.17;;;;;;;;;;5092714;28;20075;-72
2023/12/20 09:06:15;;;;;;;1.30;1.02;;;;;;;;;;5089396;28;20086;-69
2023/12/20 09:08:42;;;;;;;4.18;1.17;;;;;;;;;;5094332;28;20057;-69
2023/12/20 09:11:10;;;;;;;1.85;1.10;;;;;;;;;;5088401;28;20112;-69
2023/12/20 09:13:37;;;;;;;1.67;1.10;;;;;;;;;;5082429;28;20094;-70
2023/12/20 09:16:04;;;;;;;1.63;1.10;;;;;;;;;;5091828;28;20052;-69
2023/12/20 09:18:31;;;;;;;2.00;1.17;;;;;;;;;;5090757;28;20256;-69
2023/12/20 09:20:58;;;;;;;1.83;1.20;;;;;;;;;;5099336;28;20039;-69
2023/12/20 09:23:24;;;;;;;1.70;1.13;;;;;;;;;;5094694;28;20067;-69
2023/12/20 09:25:51;;;;;;;2.28;1.30;;;;;;;;;;5094677;28;20083;-69
2023/12/20 09:28:22;;;;;;;4.18;1.17;;;;;;;;;;5088111;28;20741;-70
2023/12/20 09:30:49;;;;;;;2.42;1.13;;;;;;;;;;5070499;28;20101;-70
2023/12/20 09:33:16;;;;;;;2.35;1.30;;;;;;;;;;5087764;28;20532;-70
2023/12/20 09:35:43;;;;;;;1.45;1.13;;;;;;;;;;5088651;28;20048;-68
2023/12/20 09:38:12;;;;;;;1.45;1.08;;;;;;;;;;5090421;28;20095;-69
2023/12/20 09:40:41;;;;;;;1.98;1.10;;;;;;;;;;5076642;28;20044;-70
2023/12/20 09:43:15;;;;;;;1.80;1.00;;;;;;;;;;5089111;28;20407;-69
2023/12/20 09:45:46;;;;;;;2.20;0.90;;;;;;;;;;5087543;28;20044;-69
2023/12/20 09:48:14;;;;;;;2.67;1.00;;;;;;;;;;5091165;28;20048;-70
2023/12/20 09:50:41;;;;;;;1.05;0.75;;;;;;;;;;5081031;28;20052;-69
2023/12/20 09:53:15;;;;;;;3.05;1.00;;;;;;;;;;5094568;28;20103;-70
2023/12/20 09:55:45;;;;;;;1.52;0.80;;;;;;;;;;5091552;28;20390;-69
2023/12/20 09:58:11;;;;;;;1.45;0.70;;;;;;;;;;5098140;28;20046;-69
2023/12/20 10:00:41;;;;;;;1.40;0.63;;;;;;;;;;5088534;28;20103;-68
2023/12/20 10:03:13;;;;;;;1.35;0.68;;;;;;;;;;5101267;28;20093;-68
2023/12/20 10:05:49;;;;;;;1.30;0.75;;;;;;;;;;5102896;28;20047;-68
2023/12/20 10:08:16;;;;;;;1.48;0.77;;;;;;;;;;5103000;28;20050;-69
2023/12/20 10:10:42;;;;;;;0.77;0.45;;;;;;;;;;5102458;28;20480;-68
2023/12/20 10:13:15;;;;;;;2.65;0.85;;;;;;;;;;5102181;28;20344;-68
2023/12/20 10:15:41;;;;;;;2.13;0.90;;;;;;;;;;5097643;28;20101;-68
2023/12/20 10:18:10;;;;;;;1.73;0.90;;;;;;;;;;5091932;28;20491;-69
2023/12/20 10:20:37;;;;;;;3.97;0.90;;;;;;;;;;5095775;28;20075;-68
2023/12/20 10:23:04;;;;;;;1.65;1.00;;;;;;;;;;5102412;28;20044;-69
2023/12/20 10:25:31;;;;;;;1.70;0.90;;;;;;;;;;5099759;28;20490;-68
2023/12/20 10:28:09;;;;;;;2.50;0.88;;;;;;;;;;5093913;28;20291;-68
2023/12/20 10:30:36;;;;;;;1.38;0.88;;;;;;;;;;5096513;28;20036;-69
2023/12/20 10:33:05;;;;;;;1.83;0.65;;;;;;;;;;5088723;28;20108;-71
2023/12/20 10:35:31;;;;;;;1.88;0.85;;;;;;;;;;5096290;28;20066;-69
2023/12/20 10:38:04;;;;;;;1.98;0.80;;;;;;;;;;5100481;28;20036;-68
2023/12/20 10:40:34;;;;;;;2.28;0.88;;;;;;;;;;5100596;28;20059;-68
2023/12/20 10:43:02;;;;;;;1.75;0.80;;;;;;;;;;5101809;28;20103;-68
2023/12/20 10:45:29;;;;;;;0.73;0.60;;;;;;;;;;5101461;28;20040;-69
2023/12/20 10:47:59;;;;;;;2.22;0.90;;;;;;;;;;5102663;28;20072;-68
2023/12/20 10:50:28;;;;;;;2.40;0.80;;;;;;;;;;5100277;28;20078;-68
2023/12/20 10:52:55;;;;;;;1.50;0.65;;;;;;;;;;5102338;28;20051;-69
2023/12/20 10:55:23;;;;;;;4.45;0.88;;;;;;;;;;5101829;28;20307;-69
2023/12/20 10:58:11;;;;;;;1.50;0.70;;;;;;;;;;5102572;28;20093;-69
2023/12/20 11:00:43;;;;;;;0.90;0.60;;;;;;;;;;5099924;28;20044;-70
2023/12/20 11:03:11;;;;;;;2.92;0.80;;;;;;;;;;5102051;28;20111;-68
2023/12/20 11:05:50;;;;;;;2.70;0.70;;;;;;;;;;5102025;28;20046;-71
2023/12/20 11:08:27;;;;;;;1.88;0.70;;;;;;;;;;5101938;28;20040;-69
2023/12/20 11:11:04;;;;;;;2.63;0.70;;;;;;;;;;5100680;28;20051;-68
2023/12/20 11:13:34;;;;;;;1.40;0.68;;;;;;;;;;5100671;28;20094;-70
2023/12/20 11:16:02;;;;;;;;;;;;;;;;;;5101487;28;20372;-71
2023/12/20 11:18:30;;;;;;;1.45;0.70;;;;;;;;;;5100581;28;19983;-70
2023/12/20 11:21:16;;;;;;;1.10;0.57;;;;;;;;;;5100533;28;20228;-70
2023/12/20 11:23:42;;;;;;;3.10;0.70;;;;;;;;;;5093244;28;20044;-69
2023/12/20 11:26:09;;;;;;;1.27;0.70;;;;;;;;;;5087412;28;20348;-70
2023/12/20 11:28:36;;;;;;;4.60;0.80;;;;;;;;;;5098564;28;20152;-70
2023/12/20 11:31:03;;;;;;;1.08;0.60;;;;;;;;;;5078134;28;20056;-71
2023/12/20 11:33:37;;;;;;;1.08;0.50;;;;;;;;;;5079525;28;20044;-70
2023/12/20 11:36:13;;;;;;;0.82;0.50;;;;;;;;;;5081537;28;20121;-70
2023/12/20 11:38:59;;;;;;;2.70;0.88;;;;;;;;;;5086232;28;20063;-70
2023/12/20 11:41:27;;;;;;;1.88;0.82;;;;;;;;;;5101454;28;20062;-70
2023/12/20 11:43:54;;;;;;;3.00;0.90;;;;;;;;;;5100137;28;20139;-69
2023/12/20 11:46:21;;;;;;;2.80;0.70;;;;;;;;;;5096694;28;20492;-69
2023/12/20 11:48:48;;;;;;;2.80;0.80;;;;;;;;;;5097976;28;20097;-70
2023/12/20 11:51:15;;;;;;;1.90;0.70;;;;;;;;;;5091849;28;20476;-69
2023/12/20 11:53:42;;;;;;;1.13;0.60;;;;;;;;;;5089843;28;20117;-71
2023/12/20 11:56:09;;;;;;;2.88;0.68;;;;;;;;;;5084479;28;20044;-69
2023/12/20 11:58:36;;;;;;;3.22;0.80;;;;;;;;;;5077804;28;20044;-70
2023/12/20 12:01:07;;;;;;;0.80;0.50;;;;;;;;;;5080186;28;20272;-70
2023/12/20 12:03:34;;;;;;;0.68;0.40;;;;;;;;;;5080356;28;20054;-71
2023/12/20 12:06:04;;;;;;;1.50;0.68;;;;;;;;;;5080865;28;20044;-70
2023/12/20 12:08:31;;;;;;;7.72;1.05;;;;;;;;;;5081031;28;20128;-69
2023/12/20 12:10:58;;;;;;;2.25;0.75;;;;;;;;;;5079620;28;20063;-70
2023/12/20 12:13:27;;;;;;;2.38;0.80;;;;;;;;;;5084723;28;20150;-72
2023/12/20 12:15:54;;;;;;;1.55;0.50;;;;;;;;;;5093735;28;20043;-71
2023/12/20 12:18:21;;;;;;;1.90;0.47;;;;;;;;;;5084422;28;20056;-70
2023/12/20 12:20:48;;;;;;;3.00;0.60;;;;;;;;;;5081596;28;20047;-73
2023/12/20 12:23:23;;;;;;;3.78;0.70;;;;;;;;;;5099766;28;20052;-70
2023/12/20 12:25:50;;;;;;;4.80;0.60;;;;;;;;;;5099720;28;20115;-69
2023/12/20 12:28:16;;;;;;;1.98;0.47;;;;;;;;;;5095681;28;20051;-70
2023/12/20 12:30:56;;;;;;;2.10;0.52;;;;;;;;;;5087876;28;20444;-71
2023/12/20 12:33:27;;;;;;;3.88;0.60;;;;;;;;;;5093429;28;20088;-70
2023/12/20 12:35:55;;;;;;;2.55;0.63;;;;;;;;;;5087108;28;20100;-76
2023/12/20 12:38:22;;;;;;;2.17;0.50;;;;;;;;;;5092142;28;20071;-70
2023/12/20 12:40:49;;;;;;;2.17;0.40;;;;;;;;;;5083885;28;20340;-71
2023/12/20 12:43:16;;;;;;;1.30;0.60;;;;;;;;;;5075435;28;20218;-70
2023/12/20 12:45:43;;;;;;;1.63;0.50;;;;;;;;;;5073359;28;20071;-70
2023/12/20 12:48:10;;;;;;;1.58;0.57;;;;;;;;;;5097958;28;20044;-70
2023/12/20 12:50:37;;;;;;;3.60;0.70;;;;;;;;;;5097598;28;20607;-70
2023/12/20 12:53:04;;;;;;;2.22;0.70;;;;;;;;;;5078664;28;20056;-70
2023/12/20 12:55:30;;;;;;;4.53;0.70;;;;;;;;;;5095660;28;20036;-70
2023/12/20 12:57:57;;;;;;;3.60;0.85;;;;;;;;;;5095238;28;20044;-70
2023/12/20 13:00:26;;;;;;;2.65;0.70;;;;;;;;;;5092651;28;20101;-70
2023/12/20 13:02:52;;;;;;;0.80;0.60;;;;;;;;;;5094993;28;20047;-70
2023/12/20 13:05:22;;;;;;;2.05;0.60;;;;;;;;;;5094801;28;20040;-70
2023/12/20 13:07:48;;;;;;;2.10;0.60;;;;;;;;;;5094132;28;20051;-70
2023/12/20 13:10:18;;;;;;;1.45;0.50;;;;;;;;;;5086271;28;20056;-70
2023/12/20 13:12:45;;;;;;;1.83;0.50;;;;;;;;;;5083960;28;20040;-71
2023/12/20 13:15:13;;;;;;;2.72;0.70;;;;;;;;;;5089823;28;20587;-70
2023/12/20 13:17:39;;;;;;;1.40;0.52;;;;;;;;;;5086607;28;20044;-70
2023/12/20 13:20:07;;;;;;;2.20;0.43;;;;;;;;;;5087796;28;20109;-70
2023/12/20 13:22:34;;;;;;;1.90;0.60;;;;;;;;;;5088553;28;20119;-70
2023/12/20 13:25:02;;;;;;;2.35;0.63;;;;;;;;;;5090176;28;20222;-71
2023/12/20 13:27:29;;;;;;;3.50;0.70;;;;;;;;;;5091127;28;20040;-70
2023/12/20 13:29:58;;;;;;;3.83;0.70;;;;;;;;;;5091544;28;20558;-70
2023/12/20 13:32:24;;;;;;;2.75;0.70;;;;;;;;;;5091235;28;20487;-70
2023/12/20 13:34:51;;;;;;;2.05;0.65;;;;;;;;;;5091395;28;20089;-69
2023/12/20 13:37:21;;;;;;;3.20;0.70;;;;;;;;;;5090164;28;20475;-70
2023/12/20 13:39:48;;;;;;;2.45;0.65;;;;;;;;;;5090831;28;20052;-70
2023/12/20 13:42:15;;;;;;;3.50;0.80;;;;;;;;;;5091022;28;20189;-69
2023/12/20 13:44:42;;;;;;;4.05;0.70;;;;;;;;;;5091174;28;20044;-72
2023/12/20 13:47:08;;;;;;;1.75;0.50;;;;;;;;;;5091122;28;20055;-69
2023/12/20 13:49:35;;;;;;;2.15;0.70;;;;;;;;;;5072956;28;20044;-69
2023/12/20 13:52:04;;;;;;;1.40;0.60;;;;;;;;;;5090993;28;20105;-70
2023/12/20 13:54:30;;;;;;;3.33;1.08;;;;;;;;;;5090565;28;20549;-70
2023/12/20 13:56:57;;;;;;;5.32;1.10;;;;;;;;;;5090683;28;20059;-69
2023/12/20 13:59:38;;;;;;;2.97;0.70;;;;;;;;;;5091336;28;20075;-72
2023/12/20 14:02:05;;;;;;;2.97;0.70;;;;;;;;;;5090943;28;20044;-72
2023/12/20 14:04:32;;;;;;;3.33;0.88;;;;;;;;;;5091171;28;20113;-69
2023/12/20 14:07:10;;;;;;;4.32;0.90;;;;;;;;;;5090602;28;20052;-70
2023/12/20 14:09:38;;;;;;;1.85;0.63;;;;;;;;;;5090733;28;20040;-69
2023/12/20 14:12:05;;;;;;;3.05;0.82;;;;;;;;;;5091865;28;20048;-68
2023/12/20 14:14:32;;;;;;;5.95;1.20;;;;;;;;;;5082625;28;20076;-67
2023/12/20 14:16:59;;;;;;;2.85;0.90;;;;;;;;;;5076563;28;20056;-70
2023/12/20 14:19:25;;;;;;;3.28;0.90;;;;;;;;;;5086179;28;20494;-69
2023/12/20 14:21:52;;;;;;;1.98;0.63;;;;;;;;;;5089547;28;20044;-71
2023/12/20 14:24:19;;;;;;;4.70;1.23;;;;;;;;;;5070227;28;20051;-70
2023/12/20 14:26:46;;;;;;;2.78;0.80;;;;;;;;;;5069921;28;20478;-69
2023/12/20 14:29:12;;;;;;;2.80;0.73;;;;;;;;;;5078796;28;20109;-70
2023/12/20 14:31:40;;;;;;;3.17;0.70;;;;;;;;;;5080955;28;20177;-70
2023/12/20 14:34:08;;;;;;;5.82;0.80;;;;;;;;;;5069112;28;20583;-70
2023/12/20 14:36:35;;;;;;;1.67;0.70;;;;;;;;;;5076383;28;20052;-69
2023/12/20 14:39:03;;;;;;;2.33;0.52;;;;;;;;;;5091626;28;20044;-71
2023/12/20 14:41:30;;;;;;;2.20;0.70;;;;;;;;;;5072825;28;20132;-70
2023/12/20 14:43:59;;;;;;;2.05;0.50;;;;;;;;;;5093424;28;20048;-69
2023/12/20 14:46:28;;;;;;;1.75;0.50;;;;;;;;;;5080254;28;20115;-69